Time;durP1;ratioP1;P1;durP2;ratioP2;P2;SDS_P1;SDS_P2;PMS_P1;PMS_P2;Temp;Humidity;BMP_temperature;BMP_pressure;BME280_temperature;BME280_humidity;BME280_pressure;Samples;Min_cycle;Max_cycle;Signal;HPM_P1;HPM_P2
2022/02/04 00:31:34;;;;;;;12.23;7.93;;;;;;;;;;19743959;30;20062;-60
2022/02/04 00:41:38;;;;;;;11.60;6.90;;;;;;;;;;19728815;30;20048;-60
2022/02/04 00:51:58;;;;;;;10.83;6.80;;;;;;;;;;19743832;30;20052;-61
2022/02/04 01:33:03;;;;;;;18.05;10.60;;;;;;;;;;19749538;30;20563;-61
2022/02/04 01:43:05;;;;;;;15.70;10.32;;;;;;;;;;19739700;30;20056;-60
2022/02/04 01:53:08;;;;;;;16.95;10.30;;;;;;;;;;19754869;30;20070;-60
2022/02/04 02:03:09;;;;;;;13.50;8.48;;;;;;;;;;19753807;30;20105;-61
2022/02/04 02:34:25;;;;;;;16.98;10.88;;;;;;;;;;19751461;30;20060;-60
2022/02/04 02:44:33;;;;;;;13.73;7.37;;;;;;;;;;19750086;30;20052;-61
2022/02/04 03:05:10;;;;;;;18.98;11.18;;;;;;;;;;19749841;30;20055;-60
2022/02/04 03:15:12;;;;;;;20.60;10.77;;;;;;;;;;19749686;30;20398;-62
2022/02/04 03:25:18;;;;;;;15.10;10.57;;;;;;;;;;19732991;30;20504;-61
2022/02/04 03:35:24;;;;;;;16.02;10.50;;;;;;;;;;19747464;30;20063;-62
2022/02/04 03:45:36;;;;;;;16.50;9.98;;;;;;;;;;19732714;30;20059;-61
2022/02/04 03:55:43;;;;;;;11.57;7.47;;;;;;;;;;19731918;30;20056;-61
2022/02/04 04:06:05;;;;;;;13.05;6.68;;;;;;;;;;19745115;30;20052;-61
2022/02/04 04:16:27;;;;;;;10.70;6.55;;;;;;;;;;19744149;29;20051;-61
2022/02/04 04:26:48;;;;;;;11.95;6.40;;;;;;;;;;19744719;30;20056;-61
2022/02/04 04:37:10;;;;;;;9.77;7.03;;;;;;;;;;19744616;30;20064;-60
2022/02/04 05:29:56;;;;;;;10.05;6.50;;;;;;;;;;19740891;30;20055;-61
2022/02/04 05:40:21;;;;;;;11.55;5.93;;;;;;;;;;19741815;30;20052;-60
2022/02/04 06:01:28;;;;;;;12.25;6.80;;;;;;;;;;19740670;30;20059;-61
2022/02/04 06:22:11;;;;;;;21.95;9.27;;;;;;;;;;19748841;29;20528;-60
2022/02/04 06:32:17;;;;;;;12.80;7.50;;;;;;;;;;19751328;30;20530;-63
2022/02/04 06:42:23;;;;;;;15.75;8.10;;;;;;;;;;19751205;30;20055;-60
2022/02/04 06:52:25;;;;;;;64.75;41.80;;;;;;;;;;19750337;30;20070;-61
2022/02/04 07:02:29;;;;;;;14.00;9.60;;;;;;;;;;19749547;30;20056;-61
2022/02/04 07:12:37;;;;;;;17.00;10.23;;;;;;;;;;19750099;30;20443;-60
2022/02/04 07:22:39;;;;;;;14.10;8.25;;;;;;;;;;19747447;30;20059;-60
2022/02/04 07:32:52;;;;;;;14.90;8.45;;;;;;;;;;19732351;30;20623;-60
2022/02/04 07:42:54;;;;;;;14.73;8.18;;;;;;;;;;19746518;30;20051;-60
2022/02/04 07:52:57;;;;;;;14.68;8.68;;;;;;;;;;19746081;30;20064;-60
2022/02/04 08:03:05;;;;;;;21.48;9.38;;;;;;;;;;19745221;30;20056;-60
2022/02/04 08:34:12;;;;;;;17.63;9.43;;;;;;;;;;19742956;30;20113;-59
2022/02/04 08:55:08;;;;;;;15.07;9.68;;;;;;;;;;19741990;30;20056;-59
2022/02/04 09:05:41;;;;;;;18.30;11.85;;;;;;;;;;19741534;30;20056;-60
2022/02/04 09:26:25;;;;;;;21.33;11.88;;;;;;;;;;19740631;30;20106;-61
2022/02/04 09:36:37;;;;;;;23.33;12.05;;;;;;;;;;19725609;30;20060;-61
2022/02/04 09:46:39;;;;;;;19.95;12.20;;;;;;;;;;19740447;30;20064;-63
2022/02/04 10:17:26;;;;;;;24.60;12.70;;;;;;;;;;19819897;29;20059;-58
2022/02/04 10:27:34;;;;;;;24.33;13.82;;;;;;;;;;19825985;30;20066;-60
2022/02/04 10:37:39;;;;;;;26.75;13.88;;;;;;;;;;19808820;30;20055;-59
2022/02/04 11:08:25;;;;;;;29.23;14.32;;;;;;;;;;19887287;29;20107;-64
2022/02/04 11:59:41;;;;;;;22.40;12.27;;;;;;;;;;19829367;29;20043;-60
2022/02/04 12:09:46;;;;;;;24.33;14.93;;;;;;;;;;19811076;29;20055;-60
2022/02/04 12:19:52;;;;;;;34.55;18.52;;;;;;;;;;19809003;29;20469;-60
2022/02/04 12:29:55;;;;;;;25.05;13.32;;;;;;;;;;19787316;29;20067;-64
2022/02/04 12:39:59;;;;;;;42.35;21.15;;;;;;;;;;19758712;29;20424;-63
2022/02/04 12:50:07;;;;;;;31.33;14.80;;;;;;;;;;19814860;30;20062;-57
2022/02/04 13:00:33;;;;;;;23.40;14.98;;;;;;;;;;19816085;30;20059;-56
2022/02/04 13:10:35;;;;;;;27.40;17.33;;;;;;;;;;19814333;30;20087;-67
2022/02/04 13:20:38;;;;;;;26.88;16.77;;;;;;;;;;19814404;29;20062;-63
2022/02/04 13:30:42;;;;;;;27.88;18.17;;;;;;;;;;19826574;29;20059;-59
2022/02/04 13:40:48;;;;;;;;;;;;;;;;;;19830278;30;20514;-60
2022/02/04 13:51:05;;;;;;;30.55;15.82;;;;;;;;;;19812828;30;19925;-60
2022/02/04 14:01:18;;;;;;;25.45;15.25;;;;;;;;;;19812666;30;20047;-62
2022/02/04 14:11:33;;;;;;;27.35;14.80;;;;;;;;;;19827175;30;20608;-67
2022/02/04 14:21:35;;;;;;;13.23;8.52;;;;;;;;;;19826752;29;20063;-63
2022/02/04 15:02:29;;;;;;;11.30;6.97;;;;;;;;;;19898151;29;20054;-58
2022/02/04 15:12:30;;;;;;;11.32;7.28;;;;;;;;;;19897177;29;20142;-57
2022/02/04 15:22:32;;;;;;;17.92;6.78;;;;;;;;;;19896677;29;20468;-65
2022/02/04 15:32:34;;;;;;;12.80;6.90;;;;;;;;;;19896972;29;20061;-62
2022/02/04 15:42:38;;;;;;;12.65;6.45;;;;;;;;;;19895623;29;20062;-62
2022/02/04 16:03:32;;;;;;;11.82;6.63;;;;;;;;;;19737160;30;20136;-57
2022/02/04 16:24:04;;;;;;;13.45;5.30;;;;;;;;;;19735537;30;20402;-63
2022/02/04 16:34:09;;;;;;;13.05;6.18;;;;;;;;;;19799523;29;20147;-63
2022/02/04 16:44:11;;;;;;;12.18;5.93;;;;;;;;;;19874529;29;20051;-58
2022/02/04 16:54:13;;;;;;;14.30;6.88;;;;;;;;;;19890204;29;20066;-60
2022/02/04 17:04:16;;;;;;;13.35;5.70;;;;;;;;;;19889951;29;20054;-62
2022/02/04 17:14:17;;;;;;;12.13;6.28;;;;;;;;;;19890001;29;20098;-60
2022/02/04 17:24:21;;;;;;;12.90;5.43;;;;;;;;;;19890941;29;20154;-61
2022/02/04 17:34:24;;;;;;;17.87;6.03;;;;;;;;;;19890254;29;20070;-60
2022/02/04 17:44:26;;;;;;;21.80;8.15;;;;;;;;;;19890119;29;20063;-59
2022/02/04 17:54:46;;;;;;;20.42;8.55;;;;;;;;;;19889622;29;20427;-60
2022/02/04 18:15:08;;;;;;;23.70;8.35;;;;;;;;;;19894283;29;20063;-59
2022/02/04 18:25:10;;;;;;;20.65;9.43;;;;;;;;;;19884868;29;20054;-58
2022/02/04 18:35:12;;;;;;;22.73;13.52;;;;;;;;;;19900697;29;20095;-62
2022/02/04 18:45:21;;;;;;;25.02;16.33;;;;;;;;;;19898680;29;20054;-57
2022/02/04 19:06:00;;;;;;;19.65;8.85;;;;;;;;;;19898144;29;20054;-59
2022/02/04 19:26:42;;;;;;;20.75;7.60;;;;;;;;;;19592602;30;20087;-59
2022/02/04 19:36:45;;;;;;;14.60;7.90;;;;;;;;;;19592468;30;20084;-64
2022/02/04 19:46:52;;;;;;;32.63;14.02;;;;;;;;;;19590769;30;20068;-59
2022/02/04 20:27:46;;;;;;;26.45;9.88;;;;;;;;;;19891165;29;20058;-59
2022/02/04 20:37:50;;;;;;;20.98;8.85;;;;;;;;;;19890280;29;20059;-59
2022/02/04 20:47:56;;;;;;;24.27;9.93;;;;;;;;;;19890730;29;20055;-59
2022/02/04 20:58:00;;;;;;;25.27;8.68;;;;;;;;;;19890989;29;20130;-60
2022/02/04 21:18:11;;;;;;;20.33;7.60;;;;;;;;;;19889919;29;20111;-60
2022/02/04 21:28:13;;;;;;;20.58;9.52;;;;;;;;;;19889149;29;20458;-58
2022/02/04 21:38:15;;;;;;;23.30;9.55;;;;;;;;;;19888960;29;20069;-59
2022/02/04 21:48:19;;;;;;;24.00;9.68;;;;;;;;;;19895408;29;20063;-60
2022/02/04 21:58:21;;;;;;;23.47;7.77;;;;;;;;;;19903700;29;20380;-60
2022/02/04 22:29:05;;;;;;;23.35;10.27;;;;;;;;;;19901202;29;20125;-61
2022/02/04 22:39:20;;;;;;;27.23;9.98;;;;;;;;;;19901403;29;20137;-60
2022/02/04 22:59:27;;;;;;;21.47;8.87;;;;;;;;;;19898381;29;20147;-59
2022/02/04 23:09:53;;;;;;;32.20;10.00;;;;;;;;;;19898405;29;20061;-61
2022/02/04 23:50:30;;;;;;;32.50;11.02;;;;;;;;;;19896545;29;20054;-59
